Time,TemperatureF,DewpointF,PressureIn,WindDirection,WindDirectionDegrees,WindSpeedMPH,WindSpeedGustMPH,Humidity,HourlyPrecipIn,Conditions,Clouds,dailyrainin,SoftwareType,DateUTC
2013-04-04 00:02:00,36.6,33.2,29.98,North,0,0.0,-999.0,87,0.00,,,-99.99,,2013-04-04 08:02:00,
2013-04-04 00:07:00,36.7,33.3,29.98,North,0,0.0,-999.0,87,0.00,,,-99.99,,2013-04-04 08:07:00,
2013-04-04 00:12:00,36.7,33.2,29.98,North,0,0.0,-999.0,87,0.00,,,-99.99,,2013-04-04 08:12:00,
2013-04-04 00:17:00,37.0,33.2,29.98,North,0,0.0,-999.0,86,0.00,,,-99.99,,2013-04-04 08:17:00,
2013-04-04 00:22:00,36.8,32.8,29.98,North,0,0.0,-999.0,85,0.00,,,-99.99,,2013-04-04 08:22:00,
2013-04-04 00:28:00,36.7,32.8,29.98,North,0,0.0,-999.0,85,0.00,,,-99.99,,2013-04-04 08:28:00,
2013-04-04 00:33:00,36.8,33.0,29.98,North,0,0.0,-999.0,85,0.00,,,-99.99,,2013-04-04 08:33:00,
2013-04-04 00:39:00,36.6,32.9,29.98,North,0,0.0,-999.0,86,0.00,,,-99.99,,2013-04-04 08:39:00,
2013-04-04 00:45:00,36.1,32.8,29.98,North,0,0.0,-999.0,87,0.00,,,-99.99,,2013-04-04 08:45:00,
2013-04-04 00:50:00,36.2,33.0,29.98,North,0,0.0,-999.0,88,0.00,,,-99.99,,2013-04-04 08:50:00,
2013-04-04 00:55:00,36.3,32.9,29.98,North,0,0.0,-999.0,87,0.00,,,-99.99,,2013-04-04 08:55:00,
2013-04-04 01:00:00,36.5,32.7,29.98,North,0,0.0,-999.0,85,0.00,,,-99.99,,2013-04-04 09:00:00,
2013-04-04 01:06:00,36.7,32.6,29.98,North,0,0.0,-999.0,85,0.00,,,-99.99,,2013-04-04 09:06:00,
2013-04-04 01:12:00,36.0,32.6,29.98,North,0,0.0,-999.0,87,0.00,,,-99.99,,2013-04-04 09:12:00,
2013-04-04 01:17:00,35.6,32.5,29.98,North,0,0.0,-999.0,88,0.00,,,-99.99,,2013-04-04 09:17:00,
2013-04-04 01:22:00,34.8,32.5,29.98,North,0,0.0,-999.0,91,0.00,,,-99.99,,2013-04-04 09:22:00,
2013-04-04 01:28:00,34.9,33.0,29.98,North,0,0.0,-999.0,92,0.00,,,-99.99,,2013-04-04 09:28:00,
2013-04-04 01:34:00,35.2,33.4,29.98,North,0,0.0,-999.0,92,0.00,,,-99.99,,2013-04-04 09:34:00,
2013-04-04 01:40:00,35.6,33.2,29.98,North,0,0.0,-999.0,90,0.00,,,-99.99,,2013-04-04 09:40:00,
2013-04-04 01:45:00,35.6,33.4,29.98,North,0,0.0,-999.0,91,0.00,,,-99.99,,2013-04-04 09:45:00,
2013-04-04 01:50:00,35.7,33.5,29.98,North,0,0.0,-999.0,91,0.00,,,-99.99,,2013-04-04 09:50:00,
2013-04-04 01:57:00,35.7,33.6,29.98,North,0,0.0,-999.0,91,0.00,,,-99.99,,2013-04-04 09:57:00,
2013-04-04 02:02:00,36.0,33.7,29.97,North,0,0.0,-999.0,91,0.00,,,-99.99,,2013-04-04 10:02:00,
2013-04-04 02:07:00,36.0,33.3,29.97,North,0,0.0,-999.0,89,0.00,,,-99.99,,2013-04-04 10:07:00,
2013-04-04 02:12:00,36.1,33.5,29.97,North,0,0.0,-999.0,90,0.00,,,-99.99,,2013-04-04 10:12:00,
2013-04-04 02:17:00,36.3,33.8,29.97,North,0,0.0,-999.0,90,0.00,,,-99.99,,2013-04-04 10:17:00,
2013-04-04 02:22:00,36.2,33.4,29.97,North,0,0.0,-999.0,89,0.00,,,-99.99,,2013-04-04 10:22:00,
2013-04-04 02:29:00,35.4,32.5,29.97,North,0,0.0,-999.0,89,0.00,,,-99.99,,2013-04-04 10:29:00,
2013-04-04 02:34:00,35.7,32.9,29.97,North,0,0.0,-999.0,89,0.00,,,-99.99,,2013-04-04 10:34:00,
2013-04-04 02:39:00,35.7,33.0,29.97,North,0,0.0,-999.0,89,0.00,,,-99.99,,2013-04-04 10:39:00,
2013-04-04 02:44:00,36.0,33.3,29.97,North,0,0.0,-999.0,90,0.00,,,-99.99,,2013-04-04 10:44:00,
2013-04-04 02:50:00,36.1,33.6,29.97,North,0,0.0,-999.0,90,0.00,,,-99.99,,2013-04-04 10:50:00,
2013-04-04 02:55:00,36.2,33.7,29.97,North,0,0.0,-999.0,90,0.00,,,-99.99,,2013-04-04 10:55:00,
2013-04-04 03:00:00,36.2,33.6,29.96,North,0,0.0,-999.0,90,0.00,,,-99.99,,2013-04-04 11:00:00,
2013-04-04 03:05:00,36.1,33.2,29.96,North,0,0.0,-999.0,89,0.00,,,-99.99,,2013-04-04 11:05:00,
2013-04-04 03:10:00,36.6,33.4,29.96,North,0,0.0,-999.0,88,0.00,,,-99.99,,2013-04-04 11:10:00,
2013-04-04 03:15:00,36.7,33.3,29.96,North,0,0.0,-999.0,87,0.00,,,-99.99,,2013-04-04 11:15:00,
2013-04-04 03:20:00,36.6,33.2,29.96,North,0,0.0,-999.0,87,0.00,,,-99.99,,2013-04-04 11:20:00,
2013-04-04 03:25:00,36.5,33.2,29.96,North,0,0.0,-999.0,87,0.00,,,-99.99,,2013-04-04 11:25:00,
2013-04-04 03:30:00,36.4,33.3,29.96,North,0,0.0,-999.0,88,0.00,,,-99.99,,2013-04-04 11:30:00,
2013-04-04 03:36:00,36.3,33.3,29.96,North,0,0.0,-999.0,88,0.00,,,-99.99,,2013-04-04 11:36:00,
2013-04-04 03:41:00,36.3,33.3,29.96,North,0,0.0,-999.0,88,0.00,,,-99.99,,2013-04-04 11:41:00,
2013-04-04 03:46:00,36.3,33.2,29.96,North,0,0.0,-999.0,88,0.00,,,-99.99,,2013-04-04 11:46:00,
2013-04-04 03:52:00,36.3,33.4,29.96,North,0,0.0,-999.0,89,0.00,,,-99.99,,2013-04-04 11:52:00,
2013-04-04 03:57:00,36.0,32.9,29.96,North,0,0.0,-999.0,88,0.00,,,-99.99,,2013-04-04 11:57:00,
2013-04-04 04:02:00,36.0,33.0,29.94,North,0,0.0,-999.0,88,0.00,,,-99.99,,2013-04-04 12:02:00,
2013-04-04 04:07:00,36.3,33.1,29.94,North,0,0.0,-999.0,88,0.00,,,-99.99,,2013-04-04 12:07:00,
2013-04-04 04:12:00,36.4,32.8,29.94,North,0,0.0,-999.0,86,0.00,,,-99.99,,2013-04-04 12:12:00,
2013-04-04 04:17:00,36.4,32.8,29.94,North,0,0.0,-999.0,86,0.00,,,-99.99,,2013-04-04 12:17:00,
2013-04-04 04:22:00,36.3,32.8,29.94,North,0,0.0,-999.0,86,0.00,,,-99.99,,2013-04-04 12:22:00,
2013-04-04 04:27:00,36.5,33.0,29.94,North,0,0.0,-999.0,87,0.00,,,-99.99,,2013-04-04 12:27:00,
2013-04-04 04:34:00,36.2,32.9,29.94,North,0,0.0,-999.0,87,0.00,,,-99.99,,2013-04-04 12:34:00,
2013-04-04 04:39:00,35.6,32.5,29.94,North,0,0.0,-999.0,88,0.00,,,-99.99,,2013-04-04 12:39:00,
2013-04-04 04:44:00,35.5,32.6,29.94,North,0,0.0,-999.0,89,0.00,,,-99.99,,2013-04-04 12:44:00,
2013-04-04 04:50:00,35.8,32.9,29.94,North,0,0.0,-999.0,88,0.00,,,-99.99,,2013-04-04 12:50:00,
2013-04-04 04:55:00,36.5,33.0,29.94,North,0,0.0,-999.0,87,0.00,,,-99.99,,2013-04-04 12:55:00,
2013-04-04 05:00:00,36.3,32.9,29.93,North,0,0.0,-999.0,87,0.00,,,-99.99,,2013-04-04 13:00:00,
2013-04-04 05:05:00,36.0,32.8,29.93,North,0,0.0,-999.0,87,0.00,,,-99.99,,2013-04-04 13:05:00,
2013-04-04 05:10:00,36.2,32.6,29.93,North,0,0.0,-999.0,86,0.00,,,-99.99,,2013-04-04 13:10:00,
2013-04-04 05:15:00,36.2,32.5,29.93,North,0,0.0,-999.0,86,0.00,,,-99.99,,2013-04-04 13:15:00,
2013-04-04 05:20:00,36.4,32.7,29.93,North,0,0.0,-999.0,86,0.00,,,-99.99,,2013-04-04 13:20:00,
2013-04-04 05:25:00,36.3,32.7,29.93,North,0,0.0,-999.0,86,0.00,,,-99.99,,2013-04-04 13:25:00,
2013-04-04 05:30:00,36.3,32.7,29.93,North,0,0.0,-999.0,86,0.00,,,-99.99,,2013-04-04 13:30:00,
2013-04-04 05:35:00,36.1,32.8,29.93,North,0,0.0,-999.0,87,0.00,,,-99.99,,2013-04-04 13:35:00,
2013-04-04 05:40:00,36.2,33.2,29.93,North,0,0.0,-999.0,88,0.00,,,-99.99,,2013-04-04 13:40:00,
2013-04-04 05:45:00,36.2,33.2,29.93,North,0,0.0,-999.0,88,0.00,,,-99.99,,2013-04-04 13:45:00,
2013-04-04 05:50:00,35.8,32.6,29.93,North,0,0.0,-999.0,87,0.00,,,-99.99,,2013-04-04 13:50:00,
2013-04-04 05:55:00,35.7,32.6,29.93,North,0,0.0,-999.0,88,0.00,,,-99.99,,2013-04-04 13:55:00,
2013-04-04 06:01:00,35.4,31.9,29.91,North,0,0.0,-999.0,86,0.00,,,-99.99,,2013-04-04 14:01:00,
2013-04-04 06:07:00,35.7,32.3,29.91,North,0,0.0,-999.0,87,0.00,,,-99.99,,2013-04-04 14:07:00,
2013-04-04 06:12:00,36.0,32.8,29.91,North,0,0.0,-999.0,87,0.00,,,-99.99,,2013-04-04 14:12:00,
2013-04-04 06:17:00,36.2,32.5,29.91,North,0,0.0,-999.0,86,0.00,,,-99.99,,2013-04-04 14:17:00,
2013-04-04 06:24:00,36.3,32.6,29.91,North,0,0.0,-999.0,86,0.00,,,-99.99,,2013-04-04 14:24:00,
2013-04-04 06:29:00,36.3,32.5,29.91,North,0,0.0,-999.0,86,0.00,,,-99.99,,2013-04-04 14:29:00,
2013-04-04 06:34:00,36.4,32.7,29.91,North,0,0.0,-999.0,86,0.00,,,-99.99,,2013-04-04 14:34:00,
2013-04-04 06:39:00,36.2,32.2,29.91,North,0,0.0,-999.0,85,0.00,,,-99.99,,2013-04-04 14:39:00,
2013-04-04 06:44:00,36.2,32.0,29.91,North,0,0.0,-999.0,84,0.00,,,-99.99,,2013-04-04 14:44:00,
2013-04-04 06:49:00,36.3,31.9,29.91,North,0,0.0,-999.0,83,0.00,,,-99.99,,2013-04-04 14:49:00,
2013-04-04 06:54:00,36.2,32.1,29.91,North,0,0.0,-999.0,84,0.00,,,-99.99,,2013-04-04 14:54:00,
2013-04-04 07:00:00,36.2,32.4,29.90,North,0,0.0,-999.0,85,0.00,,,-99.99,,2013-04-04 15:00:00,
2013-04-04 07:05:00,36.1,31.9,29.90,North,0,0.0,-999.0,84,0.00,,,-99.99,,2013-04-04 15:05:00,
2013-04-04 07:10:00,35.8,31.9,29.90,North,0,0.0,-999.0,85,0.00,,,-99.99,,2013-04-04 15:10:00,
2013-04-04 07:15:00,35.7,32.0,29.90,North,0,0.0,-999.0,86,0.00,,,-99.99,,2013-04-04 15:15:00,
2013-04-04 07:20:00,35.5,32.1,29.90,North,0,0.0,-999.0,87,0.00,,,-99.99,,2013-04-04 15:20:00,
2013-04-04 07:25:00,35.5,32.2,29.90,North,0,0.0,-999.0,87,0.00,,,-99.99,,2013-04-04 15:25:00,
2013-04-04 07:31:00,35.5,32.0,29.90,North,0,0.0,-999.0,87,0.00,,,-99.99,,2013-04-04 15:31:00,
2013-04-04 07:36:00,35.6,32.1,29.90,North,0,0.0,-999.0,86,0.00,,,-99.99,,2013-04-04 15:36:00,
2013-04-04 07:41:00,36.0,32.5,29.90,North,0,0.0,-999.0,86,0.00,,,-99.99,,2013-04-04 15:41:00,
2013-04-04 07:47:00,36.1,32.2,29.90,North,0,0.0,-999.0,85,0.00,,,-99.99,,2013-04-04 15:47:00,
2013-04-04 07:52:00,36.2,31.9,29.90,North,0,0.0,-999.0,84,0.00,,,-99.99,,2013-04-04 15:52:00,
2013-04-04 07:57:00,36.2,31.7,29.90,North,0,0.0,-999.0,83,0.00,,,-99.99,,2013-04-04 15:57:00,
2013-04-04 08:02:00,36.1,31.7,29.88,North,0,0.0,-999.0,83,0.00,,,-99.99,,2013-04-04 16:02:00,
2013-04-04 08:07:00,36.4,32.1,29.88,North,0,0.0,-999.0,84,0.00,,,-99.99,,2013-04-04 16:07:00,
2013-04-04 08:12:00,36.5,32.0,29.88,North,0,0.0,-999.0,83,0.00,,,-99.99,,2013-04-04 16:12:00,
2013-04-04 08:17:00,36.5,31.5,29.88,North,0,0.0,-999.0,81,0.00,,,-99.99,,2013-04-04 16:17:00,
2013-04-04 08:23:00,36.6,31.7,29.88,North,0,0.0,-999.0,82,0.00,,,-99.99,,2013-04-04 16:23:00,
2013-04-04 08:29:00,36.5,31.8,29.88,North,0,0.0,-999.0,82,0.00,,,-99.99,,2013-04-04 16:29:00,
2013-04-04 08:34:00,36.5,31.8,29.88,North,0,0.0,-999.0,83,0.00,,,-99.99,,2013-04-04 16:34:00,
2013-04-04 08:39:00,36.7,32.1,29.88,North,0,0.0,-999.0,83,0.00,,,-99.99,,2013-04-04 16:39:00,
2013-04-04 08:44:00,36.7,32.0,29.88,North,0,0.0,-999.0,83,0.00,,,-99.99,,2013-04-04 16:44:00,
2013-04-04 08:49:00,36.7,31.9,29.88,North,0,0.0,-999.0,82,0.00,,,-99.99,,2013-04-04 16:49:00,
2013-04-04 08:54:00,36.8,32.1,29.88,North,0,0.0,-999.0,82,0.00,,,-99.99,,2013-04-04 16:54:00,
2013-04-04 08:59:00,37.1,31.8,29.86,North,0,0.0,-999.0,80,0.00,,,-99.99,,2013-04-04 16:59:00,
2013-04-04 09:05:00,37.2,31.5,29.86,North,0,0.0,-999.0,79,0.00,,,-99.99,,2013-04-04 17:05:00,
2013-04-04 09:10:00,37.1,31.4,29.86,North,0,0.0,-999.0,79,0.00,,,-99.99,,2013-04-04 17:10:00,
2013-04-04 09:15:00,37.0,31.6,29.86,North,0,0.0,-999.0,80,0.00,,,-99.99,,2013-04-04 17:15:00,
2013-04-04 09:20:00,37.1,31.9,29.86,North,0,0.0,-999.0,81,0.00,,,-99.99,,2013-04-04 17:20:00,
2013-04-04 09:25:00,37.2,31.1,29.86,North,0,0.0,-999.0,78,0.00,,,-99.99,,2013-04-04 17:25:00,
2013-04-04 09:30:00,37.3,31.7,29.86,North,0,0.0,-999.0,79,0.00,,,-99.99,,2013-04-04 17:30:00,
2013-04-04 09:35:00,37.3,31.9,29.86,North,0,0.0,-999.0,80,0.00,,,-99.99,,2013-04-04 17:35:00,
2013-04-04 09:41:00,37.2,32.3,29.86,North,0,0.0,-999.0,82,0.00,,,-99.99,,2013-04-04 17:41:00,
2013-04-04 09:46:00,37.5,32.7,29.86,North,0,0.0,-999.0,82,0.00,,,-99.99,,2013-04-04 17:46:00,
2013-04-04 09:51:00,37.5,32.4,29.86,North,0,0.0,-999.0,81,0.00,,,-99.99,,2013-04-04 17:51:00,
2013-04-04 09:57:00,37.6,31.6,29.86,North,0,0.0,-999.0,78,0.00,,,-99.99,,2013-04-04 17:57:00,
2013-04-04 10:02:00,37.5,32.3,29.83,North,0,0.0,-999.0,81,0.00,,,-99.99,,2013-04-04 18:02:00,
2013-04-04 10:07:00,37.4,32.4,29.83,North,0,0.0,-999.0,82,0.00,,,-99.99,,2013-04-04 18:07:00,
2013-04-04 10:12:00,37.7,30.9,29.83,North,0,0.0,-999.0,76,0.00,,,-99.99,,2013-04-04 18:12:00,
2013-04-04 10:17:00,37.8,31.0,29.83,North,0,0.0,-999.0,76,0.00,,,-99.99,,2013-04-04 18:17:00,
2013-04-04 10:22:00,38.0,30.9,29.83,North,0,0.0,-999.0,75,0.00,,,-99.99,,2013-04-04 18:22:00,
2013-04-04 10:27:00,38.3,31.5,29.83,North,0,0.0,-999.0,76,0.00,,,-99.99,,2013-04-04 18:27:00,
2013-04-04 10:32:00,38.1,31.1,29.83,North,0,0.0,-999.0,75,0.00,,,-99.99,,2013-04-04 18:32:00,
2013-04-04 10:37:00,37.9,31.3,29.83,North,0,0.0,-999.0,76,0.00,,,-99.99,,2013-04-04 18:37:00,
2013-04-04 10:42:00,37.5,31.5,29.83,North,0,0.0,-999.0,78,0.00,,,-99.99,,2013-04-04 18:42:00,
2013-04-04 10:47:00,37.5,32.1,29.83,North,0,0.0,-999.0,80,0.00,,,-99.99,,2013-04-04 18:47:00,
2013-04-04 10:52:00,37.7,31.7,29.83,North,0,0.0,-999.0,78,0.00,,,-99.99,,2013-04-04 18:52:00,
2013-04-04 10:57:00,38.1,31.4,29.83,North,0,0.0,-999.0,76,0.00,,,-99.99,,2013-04-04 18:57:00,
2013-04-04 11:02:00,38.4,31.1,29.83,North,0,0.0,-999.0,74,0.00,,,-99.99,,2013-04-04 19:02:00,
2013-04-04 11:07:00,38.3,31.5,29.83,North,0,0.0,-999.0,76,0.00,,,-99.99,,2013-04-04 19:07:00,
2013-04-04 11:12:00,38.1,30.4,29.83,North,0,0.0,-999.0,73,0.00,,,-99.99,,2013-04-04 19:12:00,
2013-04-04 11:17:00,38.4,30.2,29.83,North,0,0.0,-999.0,72,0.00,,,-99.99,,2013-04-04 19:17:00,
2013-04-04 11:22:00,38.1,31.8,29.83,North,0,0.0,-999.0,77,0.00,,,-99.99,,2013-04-04 19:22:00,
2013-04-04 11:27:00,38.0,31.0,29.83,North,0,0.0,-999.0,75,0.00,,,-99.99,,2013-04-04 19:27:00,
2013-04-04 11:34:00,37.9,30.4,29.83,North,0,0.0,-999.0,74,0.00,,,-99.99,,2013-04-04 19:34:00,
2013-04-04 11:39:00,38.6,31.2,29.83,North,0,0.0,-999.0,74,0.00,,,-99.99,,2013-04-04 19:39:00,
2013-04-04 11:44:00,38.5,31.3,29.83,North,0,0.0,-999.0,74,0.00,,,-99.99,,2013-04-04 19:44:00,
2013-04-04 11:50:00,37.9,31.6,29.83,North,0,0.0,-999.0,77,0.00,,,-99.99,,2013-04-04 19:50:00,
2013-04-04 11:57:00,37.6,30.3,29.83,North,0,0.0,-999.0,74,0.00,,,-99.99,,2013-04-04 19:57:00,
2013-04-04 12:02:00,37.9,30.0,29.82,North,0,0.0,-999.0,73,0.00,,,-99.99,,2013-04-04 20:02:00,
2013-04-04 12:07:00,38.1,30.2,29.82,North,0,0.0,-999.0,72,0.00,,,-99.99,,2013-04-04 20:07:00,
2013-04-04 12:12:00,38.5,31.6,29.82,North,0,0.0,-999.0,75,0.00,,,-99.99,,2013-04-04 20:12:00,
2013-04-04 12:17:00,38.4,32.0,29.82,North,0,0.0,-999.0,77,0.00,,,-99.99,,2013-04-04 20:17:00,
2013-04-04 12:22:00,38.7,31.7,29.82,North,0,0.0,-999.0,75,0.00,,,-99.99,,2013-04-04 20:22:00,
2013-04-04 12:27:00,38.4,31.5,29.82,North,0,0.0,-999.0,76,0.00,,,-99.99,,2013-04-04 20:27:00,
2013-04-04 12:34:00,38.3,31.7,29.82,North,0,0.0,-999.0,76,0.00,,,-99.99,,2013-04-04 20:34:00,
2013-04-04 12:39:00,37.9,31.7,29.82,North,0,0.0,-999.0,78,0.00,,,-99.99,,2013-04-04 20:39:00,
2013-04-04 12:44:00,38.1,31.2,29.82,North,0,0.0,-999.0,76,0.00,,,-99.99,,2013-04-04 20:44:00,
2013-04-04 12:49:00,38.3,31.5,29.82,North,0,0.0,-999.0,76,0.00,,,-99.99,,2013-04-04 20:49:00,
2013-04-04 12:55:00,38.5,31.9,29.82,North,0,0.0,-999.0,76,0.00,,,-99.99,,2013-04-04 20:55:00,
2013-04-04 13:00:00,39.3,31.5,29.80,North,0,0.0,-999.0,73,0.00,,,-99.99,,2013-04-04 21:00:00,
2013-04-04 13:05:00,40.1,31.8,29.80,North,0,0.0,-999.0,72,0.00,,,-99.99,,2013-04-04 21:05:00,
2013-04-04 13:10:00,39.0,31.5,29.80,North,0,0.0,-999.0,74,0.00,,,-99.99,,2013-04-04 21:10:00,
2013-04-04 13:15:00,39.5,31.9,29.80,North,0,0.0,-999.0,74,0.00,,,-99.99,,2013-04-04 21:15:00,
2013-04-04 13:20:00,38.8,31.7,29.80,North,0,0.0,-999.0,75,0.00,,,-99.99,,2013-04-04 21:20:00,
2013-04-04 13:25:00,38.5,31.4,29.80,North,0,0.0,-999.0,75,0.00,,,-99.99,,2013-04-04 21:25:00,
2013-04-04 13:30:00,38.3,30.9,29.80,North,0,0.0,-999.0,74,0.00,,,-99.99,,2013-04-04 21:30:00,
2013-04-04 13:35:00,39.0,31.4,29.80,North,0,0.0,-999.0,73,0.00,,,-99.99,,2013-04-04 21:35:00,
2013-04-04 13:40:00,39.1,31.4,29.80,North,0,0.0,-999.0,73,0.00,,,-99.99,,2013-04-04 21:40:00,
2013-04-04 13:45:00,39.1,31.5,29.80,North,0,0.0,-999.0,73,0.00,,,-99.99,,2013-04-04 21:45:00,
2013-04-04 13:50:00,39.8,32.0,29.80,North,0,0.0,-999.0,73,0.00,,,-99.99,,2013-04-04 21:50:00,
2013-04-04 13:55:00,38.9,31.6,29.80,North,0,0.0,-999.0,74,0.00,,,-99.99,,2013-04-04 21:55:00,
2013-04-04 14:00:00,36.7,31.1,29.78,North,0,0.0,-999.0,79,0.00,,,-99.99,,2013-04-04 22:00:00,
2013-04-04 14:05:00,36.5,32.3,29.78,North,0,0.0,-999.0,84,0.00,,,-99.99,,2013-04-04 22:05:00,
2013-04-04 14:10:00,36.9,32.8,29.78,North,0,0.0,-999.0,85,0.00,,,-99.99,,2013-04-04 22:10:00,
2013-04-04 14:15:00,37.8,32.8,29.78,North,0,0.0,-999.0,81,0.00,,,-99.99,,2013-04-04 22:15:00,
2013-04-04 14:20:00,38.5,32.9,29.78,North,0,0.0,-999.0,79,0.00,,,-99.99,,2013-04-04 22:20:00,
2013-04-04 14:25:00,39.8,33.1,29.78,North,0,0.0,-999.0,76,0.00,,,-99.99,,2013-04-04 22:25:00,
2013-04-04 14:30:00,39.2,31.8,29.78,North,0,0.0,-999.0,74,0.00,,,-99.99,,2013-04-04 22:30:00,
2013-04-04 14:35:00,38.7,31.6,29.78,North,0,0.0,-999.0,75,0.00,,,-99.99,,2013-04-04 22:35:00,
2013-04-04 14:40:00,38.7,31.3,29.78,North,0,0.0,-999.0,74,0.00,,,-99.99,,2013-04-04 22:40:00,
2013-04-04 14:46:00,39.6,31.3,29.78,North,0,0.0,-999.0,71,0.00,,,-99.99,,2013-04-04 22:46:00,
2013-04-04 14:51:00,39.9,32.1,29.78,North,0,0.0,-999.0,73,0.00,,,-99.99,,2013-04-04 22:51:00,
2013-04-04 14:57:00,39.0,31.1,29.78,North,0,0.0,-999.0,72,0.00,,,-99.99,,2013-04-04 22:57:00,
2013-04-04 15:02:00,38.7,31.4,29.74,North,0,0.0,-999.0,74,0.00,,,-99.99,,2013-04-04 23:02:00,
2013-04-04 15:07:00,38.8,31.4,29.74,North,0,0.0,-999.0,74,0.00,,,-99.99,,2013-04-04 23:07:00,
2013-04-04 15:12:00,39.2,31.6,29.74,North,0,0.0,-999.0,73,0.00,,,-99.99,,2013-04-04 23:12:00,
2013-04-04 15:17:00,39.0,30.4,29.74,North,0,0.0,-999.0,71,0.00,,,-99.99,,2013-04-04 23:17:00,
2013-04-04 15:22:00,38.7,29.8,29.74,North,0,0.0,-999.0,70,0.00,,,-99.99,,2013-04-04 23:22:00,
2013-04-04 15:27:00,38.5,30.5,29.74,North,0,0.0,-999.0,72,0.00,,,-99.99,,2013-04-04 23:27:00,
2013-04-04 15:32:00,39.1,31.1,29.74,North,0,0.0,-999.0,72,0.00,,,-99.99,,2013-04-04 23:32:00,
2013-04-04 15:37:00,39.3,30.1,29.74,North,0,0.0,-999.0,69,0.00,,,-99.99,,2013-04-04 23:37:00,
2013-04-04 15:42:00,39.3,30.3,29.74,North,0,0.0,-999.0,69,0.00,,,-99.99,,2013-04-04 23:42:00,
2013-04-04 15:47:00,39.8,30.6,29.74,North,0,0.0,-999.0,69,0.00,,,-99.99,,2013-04-04 23:47:00,
2013-04-04 15:52:00,39.3,30.3,29.74,North,0,0.0,-999.0,69,0.00,,,-99.99,,2013-04-04 23:52:00,
2013-04-04 15:57:00,39.8,32.2,29.74,North,0,0.0,-999.0,73,0.00,,,-99.99,,2013-04-04 23:57:00,
2013-04-04 16:02:00,40.4,32.5,29.73,North,0,0.0,-999.0,73,0.00,,,-99.99,,2013-04-05 00:02:00,
2013-04-04 16:08:00,40.1,32.1,29.73,North,0,0.0,-999.0,72,0.00,,,-99.99,,2013-04-05 00:08:00,
2013-04-04 16:14:00,39.3,30.5,29.73,North,0,0.0,-999.0,70,0.00,,,-99.99,,2013-04-05 00:14:00,
2013-04-04 16:19:00,38.5,30.7,29.73,North,0,0.0,-999.0,73,0.00,,,-99.99,,2013-04-05 00:19:00,
2013-04-04 16:24:00,39.8,31.5,29.73,North,0,0.0,-999.0,71,0.00,,,-99.99,,2013-04-05 00:24:00,
2013-04-04 16:30:00,39.5,31.4,29.73,North,0,0.0,-999.0,72,0.00,,,-99.99,,2013-04-05 00:30:00,
2013-04-04 16:35:00,39.3,30.7,29.73,North,0,0.0,-999.0,70,0.00,,,-99.99,,2013-04-05 00:35:00,
2013-04-04 16:41:00,39.5,30.7,29.73,North,0,0.0,-999.0,70,0.00,,,-99.99,,2013-04-05 00:41:00,
2013-04-04 16:47:00,39.0,29.5,29.73,North,0,0.0,-999.0,68,0.00,,,-99.99,,2013-04-05 00:47:00,
2013-04-04 16:52:00,38.7,29.4,29.73,North,0,0.0,-999.0,68,0.00,,,-99.99,,2013-04-05 00:52:00,
2013-04-04 16:57:00,38.5,29.9,29.73,North,0,0.0,-999.0,71,0.00,,,-99.99,,2013-04-05 00:57:00,
2013-04-04 17:02:00,38.4,29.3,29.70,North,0,0.0,-999.0,69,0.00,,,-99.99,,2013-04-05 01:02:00,
2013-04-04 17:07:00,38.7,29.9,29.70,North,0,0.0,-999.0,70,0.00,,,-99.99,,2013-04-05 01:07:00,
2013-04-04 17:12:00,37.8,30.7,29.70,North,0,0.0,-999.0,75,0.00,,,-99.99,,2013-04-05 01:12:00,
2013-04-04 17:18:00,37.6,31.1,29.70,North,0,0.0,-999.0,77,0.00,,,-99.99,,2013-04-05 01:18:00,
2013-04-04 17:24:00,37.9,30.7,29.70,North,0,0.0,-999.0,75,0.00,,,-99.99,,2013-04-05 01:24:00,
2013-04-04 17:29:00,38.2,31.5,29.70,North,0,0.0,-999.0,76,0.00,,,-99.99,,2013-04-05 01:29:00,
2013-04-04 17:36:00,37.9,29.9,29.70,North,0,0.0,-999.0,72,0.00,,,-99.99,,2013-04-05 01:36:00,
2013-04-04 17:41:00,37.7,29.5,29.70,North,0,0.0,-999.0,72,0.00,,,-99.99,,2013-04-05 01:41:00,
2013-04-04 17:47:00,37.9,30.4,29.70,North,0,0.0,-999.0,74,0.00,,,-99.99,,2013-04-05 01:47:00,
2013-04-04 17:53:00,37.5,29.4,29.70,North,0,0.0,-999.0,72,0.00,,,-99.99,,2013-04-05 01:53:00,
2013-04-04 17:58:00,37.9,28.8,29.70,North,0,0.0,-999.0,69,0.00,,,-99.99,,2013-04-05 01:58:00,
2013-04-04 18:04:00,37.9,27.6,29.67,North,0,0.0,-999.0,65,0.00,,,-99.99,,2013-04-05 02:04:00,
2013-04-04 18:09:00,37.9,26.6,29.67,North,0,0.0,-999.0,63,0.00,,,-99.99,,2013-04-05 02:09:00,
2013-04-04 18:14:00,37.9,27.5,29.67,North,0,0.0,-999.0,65,0.00,,,-99.99,,2013-04-05 02:14:00,
2013-04-04 18:19:00,37.9,27.0,29.67,North,0,0.0,-999.0,64,0.00,,,-99.99,,2013-04-05 02:19:00,
2013-04-04 18:24:00,37.8,27.7,29.67,North,0,0.0,-999.0,66,0.00,,,-99.99,,2013-04-05 02:24:00,
2013-04-04 18:30:00,38.0,28.5,29.67,North,0,0.0,-999.0,68,0.00,,,-99.99,,2013-04-05 02:30:00,
2013-04-04 18:35:00,38.2,29.4,29.67,North,0,0.0,-999.0,70,0.00,,,-99.99,,2013-04-05 02:35:00,
2013-04-04 18:40:00,38.2,29.0,29.67,North,0,0.0,-999.0,69,0.00,,,-99.99,,2013-04-05 02:40:00,
2013-04-04 18:45:00,38.1,28.4,29.67,North,0,0.0,-999.0,68,0.00,,,-99.99,,2013-04-05 02:45:00,
2013-04-04 18:50:00,37.9,28.3,29.67,North,0,0.0,-999.0,68,0.00,,,-99.99,,2013-04-05 02:50:00,
2013-04-04 18:55:00,37.9,27.8,29.67,North,0,0.0,-999.0,66,0.00,,,-99.99,,2013-04-05 02:55:00,
2013-04-04 19:00:00,37.8,28.4,29.66,North,0,0.0,-999.0,68,0.00,,,-99.99,,2013-04-05 03:00:00,
2013-04-04 19:05:00,37.9,29.6,29.66,North,0,0.0,-999.0,71,0.00,,,-99.99,,2013-04-05 03:05:00,
2013-04-04 19:10:00,37.3,30.6,29.66,North,0,0.0,-999.0,76,0.00,,,-99.99,,2013-04-05 03:10:00,
2013-04-04 19:15:00,36.8,30.4,29.66,North,0,0.0,-999.0,77,0.00,,,-99.99,,2013-04-05 03:15:00,
2013-04-04 19:20:00,36.7,31.1,29.66,North,0,0.0,-999.0,79,0.00,,,-99.99,,2013-04-05 03:20:00,
2013-04-04 19:25:00,35.7,31.0,29.66,North,0,0.0,-999.0,82,0.00,,,-99.99,,2013-04-05 03:25:00,
2013-04-04 19:30:00,35.6,31.3,29.66,North,0,0.0,-999.0,84,0.00,,,-99.99,,2013-04-05 03:30:00,
2013-04-04 19:35:00,35.6,31.3,29.66,North,0,0.0,-999.0,84,0.00,,,-99.99,,2013-04-05 03:35:00,
2013-04-04 19:40:00,36.0,32.0,29.66,North,0,0.0,-999.0,85,0.00,,,-99.99,,2013-04-05 03:40:00,
2013-04-04 19:45:00,36.3,32.5,29.66,North,0,0.0,-999.0,85,0.00,,,-99.99,,2013-04-05 03:45:00,
2013-04-04 19:50:00,35.4,31.7,29.66,North,0,0.0,-999.0,86,0.00,,,-99.99,,2013-04-05 03:50:00,
2013-04-04 19:55:00,35.0,32.0,29.66,North,0,0.0,-999.0,88,0.00,,,-99.99,,2013-04-05 03:55:00,
2013-04-04 20:00:00,35.1,32.4,29.63,North,0,0.0,-999.0,89,0.00,,,-99.99,,2013-04-05 04:00:00,
2013-04-04 20:05:00,35.2,32.5,29.63,North,0,0.0,-999.0,89,0.00,,,-99.99,,2013-04-05 04:05:00,
2013-04-04 20:07:00,35.0,32.4,29.63,North,0,0.0,-999.0,89,0.00,,,-99.99,,2013-04-05 04:07:00,
2013-04-04 20:09:00,35.0,32.5,29.63,North,0,0.0,-999.0,90,0.00,,,-99.99,,2013-04-05 04:09:00,
2013-04-04 20:14:00,34.8,32.2,29.63,North,0,0.0,-999.0,90,0.00,,,-99.99,,2013-04-05 04:14:00,
2013-04-04 20:19:00,34.9,32.3,29.63,North,0,0.0,-999.0,90,0.00,,,-99.99,,2013-04-05 04:19:00,
2013-04-04 20:25:00,35.2,32.4,29.63,North,0,0.0,-999.0,89,0.00,,,-99.99,,2013-04-05 04:25:00,
2013-04-04 20:30:00,35.5,32.4,29.63,North,0,0.0,-999.0,88,0.00,,,-99.99,,2013-04-05 04:30:00,
2013-04-04 20:35:00,35.4,32.0,29.63,North,0,0.0,-999.0,87,0.00,,,-99.99,,2013-04-05 04:35:00,
2013-04-04 20:40:00,35.7,32.4,29.63,North,0,0.0,-999.0,87,0.00,,,-99.99,,2013-04-05 04:40:00,
2013-04-04 20:45:00,35.7,32.1,29.63,North,0,0.0,-999.0,86,0.00,,,-99.99,,2013-04-05 04:45:00,
2013-04-04 20:50:00,35.7,31.8,29.63,North,0,0.0,-999.0,85,0.00,,,-99.99,,2013-04-05 04:50:00,
2013-04-04 20:55:00,35.5,31.7,29.63,North,0,0.0,-999.0,86,0.00,,,-99.99,,2013-04-05 04:55:00,
2013-04-04 21:00:00,35.5,31.6,29.63,North,0,0.0,-999.0,85,0.00,,,-99.99,,2013-04-05 05:00:00,
2013-04-04 21:05:00,35.4,31.7,29.63,North,0,0.0,-999.0,86,0.00,,,-99.99,,2013-04-05 05:05:00,
2013-04-04 21:10:00,35.0,31.7,29.63,North,0,0.0,-999.0,87,0.00,,,-99.99,,2013-04-05 05:10:00,
2013-04-04 21:15:00,35.0,32.0,29.63,North,0,0.0,-999.0,88,0.00,,,-99.99,,2013-04-05 05:15:00,
2013-04-04 21:20:00,34.9,32.0,29.63,North,0,0.0,-999.0,89,0.00,,,-99.99,,2013-04-05 05:20:00,
2013-04-04 21:25:00,35.0,32.2,29.63,North,0,0.0,-999.0,89,0.00,,,-99.99,,2013-04-05 05:25:00,
2013-04-04 21:30:00,35.0,32.2,29.63,North,0,0.0,-999.0,89,0.00,,,-99.99,,2013-04-05 05:30:00,
2013-04-04 21:35:00,35.0,32.0,29.63,North,0,0.0,-999.0,88,0.00,,,-99.99,,2013-04-05 05:35:00,
2013-04-04 21:40:00,35.0,31.9,29.63,North,0,0.0,-999.0,88,0.00,,,-99.99,,2013-04-05 05:40:00,
2013-04-04 21:45:00,35.1,31.6,29.63,North,0,0.0,-999.0,87,0.00,,,-99.99,,2013-04-05 05:45:00,
2013-04-04 21:50:00,35.3,31.2,29.63,North,0,0.0,-999.0,84,0.00,,,-99.99,,2013-04-05 05:50:00,
2013-04-04 21:55:00,35.5,31.0,29.63,North,0,0.0,-999.0,83,0.00,,,-99.99,,2013-04-05 05:55:00,
2013-04-04 22:00:00,35.7,31.0,29.61,North,0,0.0,-999.0,82,0.00,,,-99.99,,2013-04-05 06:00:00,
2013-04-04 22:05:00,35.5,31.0,29.61,North,0,0.0,-999.0,83,0.00,,,-99.99,,2013-04-05 06:05:00,
2013-04-04 22:11:00,35.7,31.5,29.61,North,0,0.0,-999.0,84,0.00,,,-99.99,,2013-04-05 06:11:00,
2013-04-04 22:16:00,35.9,30.8,29.61,North,0,0.0,-999.0,81,0.00,,,-99.99,,2013-04-05 06:16:00,
2013-04-04 22:21:00,35.8,30.8,29.61,North,0,0.0,-999.0,81,0.00,,,-99.99,,2013-04-05 06:21:00,
2013-04-04 22:27:00,35.8,30.6,29.61,North,0,0.0,-999.0,81,0.00,,,-99.99,,2013-04-05 06:27:00,
2013-04-04 22:32:00,35.8,30.8,29.61,North,0,0.0,-999.0,81,0.00,,,-99.99,,2013-04-05 06:32:00,
2013-04-04 22:37:00,35.8,30.8,29.61,North,0,0.0,-999.0,81,0.00,,,-99.99,,2013-04-05 06:37:00,
2013-04-04 22:42:00,35.6,31.1,29.61,North,0,0.0,-999.0,83,0.00,,,-99.99,,2013-04-05 06:42:00,
2013-04-04 22:47:00,35.6,31.2,29.61,North,0,0.0,-999.0,83,0.00,,,-99.99,,2013-04-05 06:47:00,
2013-04-04 22:52:00,35.0,31.2,29.61,North,0,0.0,-999.0,85,0.00,,,-99.99,,2013-04-05 06:52:00,
2013-04-04 22:57:00,34.8,31.4,29.61,North,0,0.0,-999.0,87,0.00,,,-99.99,,2013-04-05 06:57:00,
2013-04-04 23:02:00,34.9,31.5,29.60,North,0,0.0,-999.0,87,0.00,,,-99.99,,2013-04-05 07:02:00,
2013-04-04 23:07:00,34.9,31.4,29.60,North,0,0.0,-999.0,86,0.00,,,-99.99,,2013-04-05 07:07:00,
2013-04-04 23:12:00,35.3,31.0,29.60,North,0,0.0,-999.0,84,0.00,,,-99.99,,2013-04-05 07:12:00,
2013-04-04 23:17:00,35.5,30.5,29.60,North,0,0.0,-999.0,81,0.00,,,-99.99,,2013-04-05 07:17:00,
2013-04-04 23:22:00,35.9,29.4,29.60,North,0,0.0,-999.0,77,0.00,,,-99.99,,2013-04-05 07:22:00,
2013-04-04 23:27:00,36.1,29.3,29.60,North,0,0.0,-999.0,75,0.00,,,-99.99,,2013-04-05 07:27:00,
2013-04-04 23:32:00,36.2,29.2,29.60,North,0,0.0,-999.0,75,0.00,,,-99.99,,2013-04-05 07:32:00,
2013-04-04 23:37:00,36.3,27.2,29.60,North,0,0.0,-999.0,69,0.00,,,-99.99,,2013-04-05 07:37:00,
2013-04-04 23:42:00,36.4,27.2,29.60,North,0,0.0,-999.0,68,0.00,,,-99.99,,2013-04-05 07:42:00,
2013-04-04 23:47:00,36.3,27.9,29.60,North,0,0.0,-999.0,71,0.00,,,-99.99,,2013-04-05 07:47:00,
2013-04-04 23:53:00,36.2,27.6,29.60,North,0,0.0,-999.0,70,0.00,,,-99.99,,2013-04-05 07:53:00,